createdAt,value
2022-11-23T00:01:39.627Z,100035.94
2022-11-23T00:04:09.591Z,100043.72
2022-11-23T00:06:37.842Z,100046.19
2022-11-23T00:09:06.503Z,100049.47
2022-11-23T00:11:36.885Z,100046.84
2022-11-23T00:14:05.179Z,100051.28
2022-11-23T00:16:35.622Z,100051.28
2022-11-23T00:19:04.055Z,100046.19
2022-11-23T00:21:33.589Z,100049.63
2022-11-23T00:24:01.778Z,100051.47
2022-11-23T00:26:30.012Z,100053.28
2022-11-23T00:28:58.274Z,100049.81
2022-11-23T00:31:26.279Z,100049.81
2022-11-23T00:33:57.178Z,100035.94
2022-11-23T00:36:26.591Z,100027.50
2022-11-23T00:38:55.636Z,100028.34
2022-11-23T00:41:32.645Z,100022.38
2022-11-23T00:44:00.609Z,100028.81
2022-11-23T00:46:29.600Z,100026.16
2022-11-23T00:48:59.177Z,100017.41
2022-11-23T00:51:30.077Z,100019.22
2022-11-23T00:53:59.270Z,100003.53
2022-11-23T00:56:41.963Z,100003.72
2022-11-23T00:59:11.121Z,99995.63
2022-11-23T01:01:39.179Z,100003.38
2022-11-23T01:04:09.528Z,100006.84
2022-11-23T01:06:39.482Z,100007.69
2022-11-23T01:09:09.581Z,100008.34
2022-11-23T01:11:47.679Z,100008.19
2022-11-23T01:14:15.745Z,100010.84
2022-11-23T01:16:44.619Z,100015.13
2022-11-23T01:19:15.629Z,100011.50
2022-11-23T01:21:44.079Z,100007.22
2022-11-23T01:24:15.160Z,100008.03
2022-11-23T01:26:45.358Z,100000.28
2022-11-23T01:29:13.976Z,100003.75
2022-11-23T01:31:46.570Z,100002.75
2022-11-23T01:34:17.607Z,100003.75
2022-11-23T01:36:46.177Z,100003.91
2022-11-23T01:39:14.677Z,100011.50
2022-11-23T01:41:44.657Z,100001.47
2022-11-23T01:44:25.682Z,100006.41
2022-11-23T01:46:53.679Z,100004.28
2022-11-23T01:49:25.105Z,100004.78
2022-11-23T01:51:56.207Z,100005.47
2022-11-23T01:54:29.473Z,100012.25
2022-11-23T01:57:01.561Z,100005.09
2022-11-23T01:59:31.980Z,100006.44
2022-11-23T02:02:00.725Z,100003.13
2022-11-23T02:04:33.789Z,99999.34
2022-11-23T02:07:03.715Z,100002.66
2022-11-23T02:09:33.568Z,100001.00
2022-11-23T02:12:02.050Z,99995.38
2022-11-23T02:14:30.595Z,99999.19
2022-11-23T02:17:00.115Z,99996.88
2022-11-23T02:19:41.440Z,99991.75
2022-11-23T02:22:17.140Z,99992.06
2022-11-23T02:24:50.538Z,99990.41
2022-11-23T02:27:20.996Z,99994.69
2022-11-23T02:29:50.720Z,99989.41
2022-11-23T02:32:23.171Z,100000.97
2022-11-23T02:34:51.377Z,100003.13
2022-11-23T02:37:20.049Z,100005.09
2022-11-23T02:39:52.313Z,100009.69
2022-11-23T02:42:24.399Z,100002.91
2022-11-23T02:45:04.061Z,100010.16
2022-11-23T02:47:32.013Z,100011.81
2022-11-23T02:50:00.084Z,100001.41
2022-11-23T02:52:28.140Z,100007.69
2022-11-23T02:54:56.441Z,100005.88
2022-11-23T02:57:26.372Z,100003.91
2022-11-23T02:59:54.429Z,100001.78
2022-11-23T03:02:22.497Z,100003.28
2022-11-23T03:04:50.480Z,99999.47
2022-11-23T03:07:18.488Z,99999.47
2022-11-23T03:09:46.471Z,100003.75
2022-11-23T03:12:14.419Z,100008.88
2022-11-23T03:14:44.263Z,100004.75
2022-11-23T03:17:12.212Z,100001.94
2022-11-23T03:19:40.238Z,99998.47
2022-11-23T03:22:08.524Z,100000.28
2022-11-23T03:24:36.494Z,99991.53
2022-11-23T03:27:04.487Z,99985.28
2022-11-23T03:29:32.795Z,99980.97
2022-11-23T03:32:03.002Z,99987.75
2022-11-23T03:34:30.927Z,99982.31
2022-11-23T03:36:58.862Z,99989.25
2022-11-23T03:39:26.867Z,99978.38
2022-11-23T03:41:55.010Z,99990.59
2022-11-23T03:44:23.052Z,99991.25
2022-11-23T03:46:52.423Z,99996.38
2022-11-23T03:49:21.775Z,100000.50
2022-11-23T03:51:50.206Z,100000.34
2022-11-23T03:54:18.188Z,100003.97
2022-11-23T03:56:46.125Z,100000.50
2022-11-23T03:59:14.020Z,100005.78
2022-11-23T04:01:41.910Z,100004.13
2022-11-23T04:04:09.875Z,100009.59
2022-11-23T04:06:39.513Z,100007.75
2022-11-23T04:09:07.754Z,100013.22
2022-11-23T04:11:35.708Z,100022.13
2022-11-23T04:14:03.681Z,100012.72
2022-11-23T04:16:31.603Z,100012.72
2022-11-23T04:18:59.618Z,100013.69
2022-11-23T04:21:27.988Z,100016.50
2022-11-23T04:23:57.457Z,100017.16
2022-11-23T04:26:25.582Z,100011.38
2022-11-23T04:28:53.994Z,100013.84
2022-11-23T04:31:21.907Z,100009.91
2022-11-23T04:33:50.192Z,100010.75
2022-11-23T04:36:18.768Z,100018.66
2022-11-23T04:38:48.098Z,100012.72
2022-11-23T04:41:18.119Z,100018.16
2022-11-23T04:43:48.439Z,100017.00
2022-11-23T04:46:17.112Z,100021.47
2022-11-23T04:48:45.169Z,100010.22
2022-11-23T04:51:13.204Z,100016.34
2022-11-23T04:53:41.426Z,100019.13
2022-11-23T04:56:09.701Z,100021.94
2022-11-23T04:58:39.929Z,100022.75
2022-11-23T05:01:07.988Z,100016.66
2022-11-23T05:03:36.092Z,100012.50
2022-11-23T05:06:05.433Z,100012.66
2022-11-23T05:08:33.631Z,100009.22
2022-11-23T05:11:01.581Z,99998.66
2022-11-23T05:13:29.478Z,100007.06
2022-11-23T05:15:58.869Z,100004.25
2022-11-23T05:18:27.157Z,100004.25
2022-11-23T05:20:57.965Z,100005.09
2022-11-23T05:23:25.908Z,100008.72
2022-11-23T05:25:53.899Z,99992.88
2022-11-23T05:28:40.195Z,100001.94
2022-11-23T05:31:10.804Z,100002.91
2022-11-23T05:33:38.877Z,99998.47
2022-11-23T05:36:07.508Z,99991.53
2022-11-23T05:38:37.183Z,100002.91
2022-11-23T05:41:06.330Z,100006.53
2022-11-23T05:43:34.527Z,100002.75
2022-11-23T05:46:02.995Z,100005.25
2022-11-23T05:48:32.444Z,100012.34
2022-11-23T05:51:05.655Z,100004.72
2022-11-23T05:53:36.931Z,100005.41
2022-11-23T05:56:05.008Z,100006.22
2022-11-23T05:58:32.939Z,100002.59
2022-11-23T06:01:03.736Z,100007.88
2022-11-23T06:03:33.206Z,100007.88
2022-11-23T06:06:07.664Z,100009.69
2022-11-23T06:08:36.228Z,100003.75
2022-11-23T06:11:04.295Z,100010.69
2022-11-23T06:13:32.228Z,100009.84
2022-11-23T06:16:03.315Z,100003.06
2022-11-23T06:18:32.679Z,100009.03
2022-11-23T06:21:01.126Z,100003.91
2022-11-23T06:23:29.228Z,100009.19
2022-11-23T06:26:04.287Z,100012.81
2022-11-23T06:28:32.292Z,100028.81
2022-11-23T06:31:04.235Z,100038.53
2022-11-23T06:33:34.108Z,100035.06
2022-11-23T06:36:04.171Z,100038.53
2022-11-23T06:38:33.127Z,100043.66
2022-11-23T06:41:01.321Z,100046.16
2022-11-23T06:43:29.994Z,100048.78
2022-11-23T06:45:58.675Z,100043.50
2022-11-23T06:48:27.123Z,100045.00
2022-11-23T06:50:59.319Z,100046.66
2022-11-23T06:53:27.544Z,100045.00
2022-11-23T06:55:59.629Z,100044.84
2022-11-23T06:58:28.153Z,100043.19
2022-11-23T07:00:56.241Z,100047.66
2022-11-23T07:03:25.689Z,100038.91
2022-11-23T07:05:53.882Z,100051.44
2022-11-23T07:08:23.332Z,100061.84
2022-11-23T07:10:51.387Z,100057.22
2022-11-23T07:13:19.357Z,100060.53
2022-11-23T07:15:47.327Z,100063.84
2022-11-23T07:18:15.281Z,100059.41
2022-11-23T07:20:43.257Z,100060.88
2022-11-23T07:23:12.513Z,100054.75
2022-11-23T07:25:42.075Z,100053.44
2022-11-23T07:28:11.852Z,100059.72
2022-11-23T07:30:40.100Z,100063.50
2022-11-23T07:33:09.998Z,100060.84
2022-11-23T07:35:38.777Z,100054.06
2022-11-23T07:38:08.585Z,100052.09
2022-11-23T07:40:38.921Z,100048.63
2022-11-23T07:43:08.919Z,100045.16
2022-11-23T07:45:38.634Z,100045.31
2022-11-23T07:48:08.654Z,100047.13
2022-11-23T07:50:38.775Z,100056.72
2022-11-23T07:53:08.328Z,100040.19
2022-11-23T07:55:36.877Z,100051.75
2022-11-23T07:58:05.987Z,100056.34
2022-11-23T08:00:35.310Z,100052.91
2022-11-23T08:05:52.041Z,100053.25
2022-11-23T08:08:25.181Z,100057.53
2022-11-23T08:10:54.420Z,100049.63
2022-11-23T08:13:23.493Z,100051.13
2022-11-23T08:16:02.358Z,100051.78
2022-11-23T08:18:30.533Z,100048.66
2022-11-23T08:21:01.567Z,100060.88
2022-11-23T08:23:29.909Z,100053.09
2022-11-23T08:25:57.975Z,100062.53
2022-11-23T08:28:25.993Z,100062.53
2022-11-23T08:30:56.017Z,100061.84
2022-11-23T08:33:23.962Z,100065.31
2022-11-23T08:35:52.276Z,100065.16
2022-11-23T08:38:22.176Z,100063.06
2022-11-23T08:40:50.301Z,100064.53
2022-11-23T08:43:21.392Z,100066.88
2022-11-23T08:45:49.477Z,100061.41
2022-11-23T08:48:19.071Z,100049.84
2022-11-23T08:50:47.148Z,100066.38
2022-11-23T08:53:15.125Z,100060.09
2022-11-23T08:55:43.347Z,100061.59
2022-11-23T08:58:29.393Z,100058.94
2022-11-23T09:00:57.407Z,100067.22
2022-11-23T09:03:26.766Z,100064.91
2022-11-23T09:05:55.017Z,100059.13
2022-11-23T09:08:31.156Z,100054.88
2022-11-23T09:11:01.248Z,100055.03
2022-11-23T09:13:32.488Z,100052.59
2022-11-23T09:16:01.109Z,100054.25
2022-11-23T09:18:31.707Z,100046.66
2022-11-23T09:21:00.228Z,100048.31
2022-11-23T09:23:28.142Z,100052.94
2022-11-23T09:25:58.769Z,100055.09
2022-11-23T09:28:27.921Z,100057.41
2022-11-23T09:30:56.401Z,100051.44
2022-11-23T09:33:25.568Z,100058.88
2022-11-23T09:35:59.465Z,100062.84
2022-11-23T09:38:54.722Z,100053.41
2022-11-23T09:41:33.459Z,100070.94
2022-11-23T09:44:04.543Z,100056.22
2022-11-23T09:46:42.601Z,100054.09
2022-11-23T09:49:17.221Z,100058.38
2022-11-23T09:51:47.009Z,100059.69
2022-11-23T09:54:26.354Z,100061.69
2022-11-23T09:57:01.438Z,100061.38
2022-11-23T09:59:40.838Z,100053.44
2022-11-23T10:02:20.800Z,100047.50
2022-11-23T10:04:49.681Z,100058.25
2022-11-23T10:07:33.157Z,100052.31
2022-11-23T10:10:14.558Z,100051.78
2022-11-23T10:12:52.881Z,100047.16
2022-11-23T10:15:29.447Z,100052.13
2022-11-23T10:18:19.787Z,100044.69
2022-11-23T10:20:57.274Z,100048.00
2022-11-23T10:23:44.715Z,100056.56
2022-11-23T10:26:17.635Z,100051.63
2022-11-23T10:28:47.445Z,100056.75
2022-11-23T10:31:29.332Z,100049.78
2022-11-23T10:34:02.190Z,100048.47
2022-11-23T10:36:30.110Z,100049.78
2022-11-23T10:39:01.854Z,100056.88
2022-11-23T10:41:32.037Z,100049.72
2022-11-23T10:44:06.928Z,100048.91
2022-11-23T10:46:40.272Z,100047.06
2022-11-23T10:49:19.648Z,100048.66
2022-11-23T10:51:53.050Z,100046.28
2022-11-23T10:54:26.608Z,100046.47
2022-11-23T10:57:02.144Z,100042.16
2022-11-23T10:59:36.716Z,100044.84
2022-11-23T11:02:30.871Z,100036.28
2022-11-23T11:05:17.367Z,100038.44
2022-11-23T11:07:45.396Z,100037.16
2022-11-23T11:13:25.912Z,100026.09
2022-11-23T11:15:56.632Z,100034.53
2022-11-23T11:18:28.899Z,100031.41
2022-11-23T11:20:59.707Z,100037.03
2022-11-23T11:23:29.723Z,100042.69
2022-11-23T11:26:10.552Z,100049.13
2022-11-23T11:28:43.598Z,100040.34
2022-11-23T11:31:34.292Z,100048.63
2022-11-23T11:34:12.043Z,100035.72
2022-11-23T11:36:49.386Z,100037.06
2022-11-23T11:39:24.867Z,100028.81
2022-11-23T11:41:55.665Z,100036.25
2022-11-23T11:44:28.525Z,100025.50
2022-11-23T11:47:05.963Z,100030.81
2022-11-23T11:49:41.339Z,100028.97
2022-11-23T11:52:12.903Z,100022.03
2022-11-23T11:54:51.021Z,100028.66
2022-11-23T11:57:22.057Z,100034.94
2022-11-23T11:59:57.756Z,100037.75
2022-11-23T12:02:28.173Z,100034.09
2022-11-23T12:05:04.983Z,100030.00
2022-11-23T12:07:36.309Z,100030.81
2022-11-23T12:10:12.197Z,100033.47
2022-11-23T12:12:41.202Z,100025.16
2022-11-23T12:15:47.870Z,100027.81
2022-11-23T12:18:47.690Z,100030.81
2022-11-23T12:21:40.729Z,100043.88
2022-11-23T12:24:18.968Z,100045.50
2022-11-23T12:26:55.510Z,100046.31
2022-11-23T12:29:52.719Z,100048.81
2022-11-23T12:32:29.668Z,100039.41
2022-11-23T12:35:30.663Z,100041.34
2022-11-23T12:38:11.187Z,100043.16
2022-11-23T12:40:56.206Z,100049.94
2022-11-23T12:43:36.334Z,100046.63
2022-11-23T12:46:17.122Z,100054.22
2022-11-23T12:49:02.399Z,100036.88
2022-11-23T12:51:38.337Z,100038.19
2022-11-23T12:54:23.670Z,100042.13
2022-11-23T12:57:09.021Z,100036.38
2022-11-23T12:59:45.499Z,100031.56
2022-11-23T13:02:30.104Z,100032.03
2022-11-23T13:05:33.846Z,100040.47
2022-11-23T13:08:28.781Z,100043.25
2022-11-23T13:11:11.487Z,100040.63
2022-11-23T13:14:02.497Z,100040.47
2022-11-23T13:17:03.432Z,100043.59
2022-11-23T13:19:52.848Z,100047.56
2022-11-23T13:22:23.655Z,100043.47
2022-11-23T13:25:16.809Z,100044.63
2022-11-23T13:27:56.373Z,100049.06
2022-11-23T13:30:45.532Z,100050.72
2022-11-23T13:33:41.008Z,100051.25
2022-11-23T13:36:16.885Z,100053.56
2022-11-23T13:38:48.926Z,100053.38
2022-11-23T13:41:58.035Z,100061.81
2022-11-23T13:44:42.847Z,100062.50
2022-11-23T13:47:21.278Z,100063.16
2022-11-23T13:49:51.486Z,100060.00
2022-11-23T13:52:55.071Z,100053.91
2022-11-23T13:55:34.895Z,100057.03
2022-11-23T13:58:39.226Z,100061.50
2022-11-23T14:01:07.981Z,100061.50
2022-11-23T14:03:51.474Z,100059.84
2022-11-23T14:06:28.721Z,100064.63
2022-11-23T14:09:04.770Z,100073.06
2022-11-23T14:11:41.674Z,100071.41
2022-11-23T14:14:18.344Z,100074.88
2022-11-23T14:17:22.427Z,100078.19
2022-11-23T14:20:14.428Z,100073.22
2022-11-23T14:22:55.768Z,100073.38
2022-11-23T14:25:43.498Z,100082.44
2022-11-23T14:28:35.378Z,100086.06
2022-11-23T14:31:16.330Z,100088.03
2022-11-23T14:33:55.692Z,100088.88
2022-11-23T14:36:36.569Z,100083.94
2022-11-23T14:39:46.276Z,100098.13
2022-11-23T14:42:18.332Z,100098.28
2022-11-23T14:44:50.859Z,100102.56
2022-11-23T14:47:27.772Z,100096.31
2022-11-23T14:49:56.445Z,100089.22
2022-11-23T14:52:27.514Z,100095.63
2022-11-23T14:54:58.152Z,100098.94
2022-11-23T14:57:29.715Z,100095.13
2022-11-23T15:00:02.417Z,100091.84
2022-11-23T15:02:36.549Z,100085.56
2022-11-23T15:05:12.415Z,100098.94
2022-11-23T15:07:52.416Z,100104.22
2022-11-23T15:10:41.645Z,100104.22
2022-11-23T15:13:23.729Z,100106.69
2022-11-23T15:15:55.330Z,100105.84
2022-11-23T15:18:34.677Z,100102.72
2022-11-23T15:21:06.071Z,100101.91
2022-11-23T15:23:40.053Z,100101.75
2022-11-23T15:26:34.638Z,100111.50
2022-11-23T15:29:02.528Z,100114.28
2022-11-23T15:31:36.309Z,100110.97
2022-11-23T15:34:12.472Z,100106.00
2022-11-23T15:36:42.158Z,100112.94
2022-11-23T15:39:18.032Z,100098.91
2022-11-23T15:41:46.984Z,100101.53
2022-11-23T15:44:20.042Z,100100.03
2022-11-23T15:46:50.490Z,100103.50
2022-11-23T15:49:20.539Z,100098.22
2022-11-23T15:51:49.071Z,100096.41
2022-11-23T15:54:20.595Z,100100.88
2022-11-23T15:56:50.768Z,100094.75
2022-11-23T15:59:31.550Z,100098.06
2022-11-23T16:02:03.047Z,100103.19
2022-11-23T16:04:34.291Z,100106.66
2022-11-23T16:07:16.835Z,100102.22
2022-11-23T16:09:51.772Z,100098.75
2022-11-23T16:12:28.138Z,100103.19
2022-11-23T16:14:57.577Z,100097.09
2022-11-23T16:17:28.598Z,100098.06
2022-11-23T16:19:58.686Z,100103.19
2022-11-23T16:22:31.044Z,100101.69
2022-11-23T16:25:08.534Z,100108.63
2022-11-23T16:27:37.250Z,100099.06
2022-11-23T16:30:06.531Z,100091.47
2022-11-23T16:32:35.963Z,100101.84
2022-11-23T16:35:17.724Z,100102.69
2022-11-23T16:37:46.403Z,100103.50
2022-11-23T16:40:15.147Z,100102.38
2022-11-23T16:42:43.170Z,100101.38
2022-11-23T16:45:12.132Z,100105.53
2022-11-23T16:47:54.105Z,100091.50
2022-11-23T16:50:22.424Z,100104.03
2022-11-23T16:52:50.564Z,100102.38
2022-11-23T16:55:18.519Z,100107.66
2022-11-23T16:57:47.804Z,100103.66
2022-11-23T17:00:18.234Z,100113.41
2022-11-23T17:02:47.689Z,100109.97
2022-11-23T17:05:16.990Z,100107.47
2022-11-23T17:07:45.472Z,100111.25
2022-11-23T17:10:14.447Z,100113.22
2022-11-23T17:12:49.591Z,100114.06
2022-11-23T17:15:20.381Z,100109.59
2022-11-23T17:17:52.915Z,100100.03
2022-11-23T17:20:20.857Z,100098.53
2022-11-23T17:22:51.589Z,100105.78
2022-11-23T17:25:20.407Z,100109.25
2022-11-23T17:27:48.433Z,100106.75
2022-11-23T17:30:22.178Z,100104.31
2022-11-23T17:32:51.591Z,100094.03
2022-11-23T17:35:19.799Z,100108.22
2022-11-23T17:37:49.067Z,100112.84
2022-11-23T17:40:17.880Z,100114.50
2022-11-23T17:42:46.889Z,100119.78
2022-11-23T17:45:15.334Z,100110.88
2022-11-23T17:47:45.762Z,100109.06
2022-11-23T17:50:17.926Z,100124.91
2022-11-23T17:52:46.259Z,100124.38
2022-11-23T17:55:15.812Z,100124.38
2022-11-23T17:57:44.301Z,100126.88
2022-11-23T18:00:18.436Z,100129.00
2022-11-23T18:02:46.595Z,100138.41
2022-11-23T18:05:21.516Z,100130.66
2022-11-23T18:07:50.272Z,100138.56
2022-11-23T18:10:19.337Z,100142.03
2022-11-23T18:12:47.911Z,100139.69
2022-11-23T18:15:27.436Z,100141.38
2022-11-23T18:17:57.895Z,100144.16
2022-11-23T18:20:30.922Z,100140.84
2022-11-23T18:22:58.926Z,100135.91
2022-11-23T18:25:27.001Z,100137.03
2022-11-23T18:27:55.062Z,100129.09
2022-11-23T18:30:26.900Z,100124.97
2022-11-23T18:32:55.840Z,100127.75
2022-11-23T18:35:26.571Z,100125.28
2022-11-23T18:37:55.928Z,100135.16
2022-11-23T18:40:24.075Z,100133.53
2022-11-23T18:42:52.091Z,100144.91
2022-11-23T18:45:20.725Z,100137.97
2022-11-23T18:47:48.785Z,100145.56
2022-11-23T18:50:20.126Z,100147.22
2022-11-23T18:52:48.150Z,100138.47
2022-11-23T18:55:18.205Z,100142.09
2022-11-23T18:57:46.486Z,100144.91
2022-11-23T19:00:15.960Z,100144.09
2022-11-23T19:02:43.908Z,100139.63
2022-11-23T19:05:12.504Z,100146.72
2022-11-23T19:07:40.669Z,100144.91
2022-11-23T19:10:09.897Z,100136.31
2022-11-23T19:12:39.592Z,100145.06
2022-11-23T19:15:09.831Z,100140.78
2022-11-23T19:17:37.899Z,100144.91
2022-11-23T19:20:08.635Z,100145.72
2022-11-23T19:22:37.156Z,100144.91
2022-11-23T19:25:06.426Z,100137.97
2022-11-23T19:27:37.009Z,100141.59
2022-11-23T19:30:09.086Z,100139.09
2022-11-23T19:32:37.393Z,100138.28
2022-11-23T19:35:05.773Z,100135.78
2022-11-23T19:37:36.299Z,100138.44
2022-11-23T19:40:04.849Z,100135.94
2022-11-23T19:42:35.699Z,100136.91
2022-11-23T19:45:03.953Z,100132.63
2022-11-23T19:47:33.357Z,100133.31
2022-11-23T19:50:01.308Z,100126.22
2022-11-23T19:52:55.631Z,100121.91
2022-11-23T19:55:18.584Z,100123.06
2022-11-23T19:57:46.600Z,100118.91
2022-11-23T20:00:15.383Z,100124.84
2022-11-23T20:02:44.737Z,100128.31
2022-11-23T20:05:13.046Z,100129.84
2022-11-23T20:07:41.126Z,100128.03
2022-11-23T20:10:10.734Z,100134.50
2022-11-23T20:12:38.859Z,100140.44
2022-11-23T20:15:09.506Z,100149.03
2022-11-23T20:17:37.415Z,100150.69
2022-11-23T20:20:10.620Z,100146.09
2022-11-23T20:22:38.733Z,100152.03
2022-11-23T20:25:07.966Z,100151.75
2022-11-23T20:27:35.962Z,100154.22
2022-11-23T20:30:04.736Z,100158.53
2022-11-23T20:32:32.786Z,100153.88
2022-11-23T20:35:00.872Z,100152.75
2022-11-23T20:37:30.329Z,100158.88
2022-11-23T20:39:59.234Z,100160.53
2022-11-23T20:42:27.237Z,100157.88
2022-11-23T20:44:55.194Z,100158.56
2022-11-23T20:47:23.502Z,100164.66
2022-11-23T20:49:51.486Z,100167.97
2022-11-23T20:52:19.438Z,100173.94
2022-11-23T20:54:48.766Z,100172.28
2022-11-23T20:57:16.827Z,100178.25
2022-11-23T20:59:44.878Z,100185.00
2022-11-23T21:02:13.653Z,100188.16
2022-11-23T21:04:41.863Z,100186.19
2022-11-23T21:07:09.890Z,100183.09
2022-11-23T21:09:37.846Z,100186.38
2022-11-23T21:12:24.998Z,100186.91
2022-11-23T21:14:54.621Z,100184.13
2022-11-23T21:17:22.499Z,100183.28
2022-11-23T21:19:51.273Z,100188.56
2022-11-23T21:22:19.471Z,100193.84
2022-11-23T21:24:47.584Z,100188.25
2022-11-23T21:27:17.203Z,100189.91
2022-11-23T21:29:45.213Z,100194.06
2022-11-23T21:32:14.906Z,100190.59
2022-11-23T21:34:43.135Z,100187.44
2022-11-23T21:37:12.535Z,100189.91
2022-11-23T21:39:41.283Z,100184.78
2022-11-23T21:42:09.278Z,100188.41
2022-11-23T21:44:38.665Z,100189.41
2022-11-23T21:47:07.304Z,100188.72
2022-11-23T21:49:35.382Z,100189.84
2022-11-23T21:52:04.091Z,100191.84
2022-11-23T21:54:32.312Z,100190.00
2022-11-23T21:57:00.384Z,100184.22
2022-11-23T21:59:28.297Z,100193.97
2022-11-23T22:01:58.798Z,100185.06
2022-11-23T22:04:27.497Z,100194.66
2022-11-23T22:06:55.573Z,100198.28
2022-11-23T22:09:23.745Z,100200.09
2022-11-23T22:11:51.846Z,100196.75
2022-11-23T22:14:22.054Z,100196.75
2022-11-23T22:16:51.261Z,100194.28
2022-11-23T22:19:20.760Z,100189.81
2022-11-23T22:21:48.821Z,100194.81
2022-11-23T22:24:18.610Z,100206.03
2022-11-23T22:26:47.872Z,100205.84
2022-11-23T22:29:16.887Z,100201.25
2022-11-23T22:31:45.135Z,100209.19
2022-11-23T22:34:15.117Z,100211.66
2022-11-23T22:36:44.609Z,100213.84
2022-11-23T22:39:12.711Z,100208.56
2022-11-23T22:41:41.064Z,100205.75
2022-11-23T22:44:11.220Z,100208.56
2022-11-23T22:46:40.401Z,100204.56
2022-11-23T22:49:08.681Z,100204.53
2022-11-23T22:51:36.968Z,100200.84
2022-11-23T22:54:07.043Z,100202.31
2022-11-23T22:56:35.096Z,100200.28
2022-11-23T22:59:05.739Z,100193.81
2022-11-23T23:01:33.799Z,100197.75
2022-11-23T23:04:03.581Z,100201.53
2022-11-23T23:06:35.246Z,100206.50
2022-11-23T23:09:08.319Z,100199.41
2022-11-23T23:11:39.055Z,100203.56
2022-11-23T23:14:07.566Z,100214.78
2022-11-23T23:16:36.379Z,100206.03
2022-11-23T23:19:04.634Z,100200.75
2022-11-23T23:21:32.740Z,100201.41
2022-11-23T23:24:02.237Z,100196.28
2022-11-23T23:26:31.895Z,100194.81
2022-11-23T23:29:01.959Z,100198.94
2022-11-23T23:31:31.014Z,100201.56
2022-11-23T23:34:00.843Z,100205.03
2022-11-23T23:36:29.696Z,100204.06
2022-11-23T23:38:58.452Z,100210.00
2022-11-23T23:41:26.581Z,100209.72
2022-11-23T23:43:56.392Z,100218.31
2022-11-23T23:46:24.922Z,100222.31
2022-11-23T23:48:53.102Z,100209.25
2022-11-23T23:51:22.752Z,100205.63
2022-11-23T23:53:52.105Z,100209.94
2022-11-23T23:56:25.023Z,100208.09
2022-11-23T23:58:53.425Z,100213.22
